Time;durP1;ratioP1;P1;durP2;ratioP2;P2;SDS_P1;SDS_P2;PMS_P1;PMS_P2;Temp;Humidity;BMP_temperature;BMP_pressure;BME280_temperature;BME280_humidity;BME280_pressure;Samples;Min_cycle;Max_cycle;Signal;HPM_P1;HPM_P2
2024/01/20 00:01:45;;;;;;;0.20;0.10;;;;;;;;;;4977724;28;20030;-84
2024/01/20 00:04:11;;;;;;;0.20;0.10;;;;;;;;;;4993442;28;20049;-86
2024/01/20 00:06:37;;;;;;;0.20;0.10;;;;;;;;;;4982822;28;20087;-84
2024/01/20 00:09:03;;;;;;;0.57;0.57;;;;;;;;;;4976943;28;20505;-86
2024/01/20 00:11:29;;;;;;;0.20;0.10;;;;;;;;;;4982079;28;20041;-86
2024/01/20 00:13:55;;;;;;;0.20;0.10;;;;;;;;;;4978598;28;20069;-83
2024/01/20 00:16:21;;;;;;;0.20;0.20;;;;;;;;;;4973047;28;20066;-87
2024/01/20 00:18:47;;;;;;;0.20;0.10;;;;;;;;;;4996559;28;20108;-85
2024/01/20 00:21:14;;;;;;;0.20;0.10;;;;;;;;;;4984458;28;20045;-83
2024/01/20 00:23:40;;;;;;;0.20;0.10;;;;;;;;;;4975638;28;20046;-85
2024/01/20 00:26:06;;;;;;;0.25;0.20;;;;;;;;;;4982824;28;20676;-85
2024/01/20 00:28:32;;;;;;;0.20;0.10;;;;;;;;;;4996187;28;20046;-85
2024/01/20 00:30:58;;;;;;;0.40;0.32;;;;;;;;;;4974143;28;20040;-84
2024/01/20 00:33:25;;;;;;;0.20;0.13;;;;;;;;;;4975749;28;20046;-85
2024/01/20 00:35:51;;;;;;;0.20;0.10;;;;;;;;;;4980795;28;20040;-83
2024/01/20 00:38:17;;;;;;;0.20;0.10;;;;;;;;;;4994839;28;20137;-87
2024/01/20 00:40:43;;;;;;;0.20;0.20;;;;;;;;;;4970026;28;20049;-85
2024/01/20 00:43:13;;;;;;;0.20;0.10;;;;;;;;;;4970713;28;20053;-86
2024/01/20 00:45:39;;;;;;;0.20;0.10;;;;;;;;;;4973088;28;20046;-86
2024/01/20 00:48:05;;;;;;;1.10;0.50;;;;;;;;;;4991439;28;20073;-84
2024/01/20 00:50:31;;;;;;;0.20;0.10;;;;;;;;;;4985615;28;20038;-86
2024/01/20 00:52:57;;;;;;;0.20;0.10;;;;;;;;;;4993173;28;20037;-87
2024/01/20 00:55:23;;;;;;;0.20;0.10;;;;;;;;;;4972781;28;20041;-83
2024/01/20 00:57:49;;;;;;;0.20;0.15;;;;;;;;;;4973315;28;20110;-85
2024/01/20 01:00:15;;;;;;;0.30;0.20;;;;;;;;;;4980106;28;20634;-84
2024/01/20 01:02:41;;;;;;;0.20;0.10;;;;;;;;;;4992532;28;20037;-83
2024/01/20 01:05:11;;;;;;;0.50;0.30;;;;;;;;;;4973544;28;20116;-85
2024/01/20 01:07:37;;;;;;;0.20;0.10;;;;;;;;;;4976166;28;20445;-83
2024/01/20 01:10:04;;;;;;;0.20;0.20;;;;;;;;;;4996274;28;20094;-82
2024/01/20 01:12:30;;;;;;;0.20;0.20;;;;;;;;;;4969845;28;20046;-83
2024/01/20 01:15:17;;;;;;;0.20;0.20;;;;;;;;;;4970564;28;20049;-86
2024/01/20 01:17:42;;;;;;;0.20;0.13;;;;;;;;;;5001564;28;20068;-86
2024/01/20 01:20:14;;;;;;;0.20;0.10;;;;;;;;;;4973080;28;20069;-85
2024/01/20 01:22:54;;;;;;;0.20;0.10;;;;;;;;;;4974913;28;20044;-87
2024/01/20 01:25:23;;;;;;;0.20;0.20;;;;;;;;;;4975182;28;20050;-87
2024/01/20 01:27:49;;;;;;;0.20;0.10;;;;;;;;;;4972178;28;20046;-85
2024/01/20 01:30:15;;;;;;;0.20;0.20;;;;;;;;;;4967902;28;20055;-85
2024/01/20 01:32:42;;;;;;;0.20;0.10;;;;;;;;;;4968726;28;20048;-86
2024/01/20 01:35:08;;;;;;;0.20;0.10;;;;;;;;;;4969973;28;20038;-87
2024/01/20 01:37:34;;;;;;;0.25;0.20;;;;;;;;;;4986513;28;20041;-85
2024/01/20 01:40:00;;;;;;;0.20;0.10;;;;;;;;;;4971818;28;20064;-87
2024/01/20 01:42:26;;;;;;;0.20;0.10;;;;;;;;;;4967478;28;20050;-88
2024/01/20 01:44:53;;;;;;;0.20;0.17;;;;;;;;;;4993183;28;20120;-84
2024/01/20 01:47:19;;;;;;;0.85;0.57;;;;;;;;;;4973160;28;20498;-85
2024/01/20 01:49:51;;;;;;;0.20;0.10;;;;;;;;;;4987943;28;20048;-86
2024/01/20 01:52:21;;;;;;;0.20;0.10;;;;;;;;;;4973674;28;20034;-89
2024/01/20 01:54:47;;;;;;;0.20;0.10;;;;;;;;;;4975573;28;20395;-85
2024/01/20 01:57:14;;;;;;;0.30;0.20;;;;;;;;;;4992765;28;20038;-86
2024/01/20 01:59:41;;;;;;;0.20;0.10;;;;;;;;;;4992952;28;20968;-85
2024/01/20 02:02:07;;;;;;;0.20;0.05;;;;;;;;;;4971090;28;20042;-84
2024/01/20 02:04:33;;;;;;;0.20;0.17;;;;;;;;;;4972327;28;20041;-85
2024/01/20 02:07:02;;;;;;;0.57;0.57;;;;;;;;;;4991997;28;20079;-85
2024/01/20 02:09:29;;;;;;;0.45;0.45;;;;;;;;;;4974447;28;20042;-85
2024/01/20 02:11:55;;;;;;;0.20;0.10;;;;;;;;;;4995852;28;20038;-85
2024/01/20 02:14:22;;;;;;;0.30;0.25;;;;;;;;;;4974575;28;20406;-88
2024/01/20 02:16:48;;;;;;;0.20;0.10;;;;;;;;;;4971266;28;20571;-84
2024/01/20 02:19:14;;;;;;;0.20;0.15;;;;;;;;;;4973277;28;20061;-85
2024/01/20 02:21:41;;;;;;;0.55;0.55;;;;;;;;;;4976976;28;20038;-83
2024/01/20 02:24:12;;;;;;;0.20;0.10;;;;;;;;;;4973627;28;20037;-84
2024/01/20 02:26:38;;;;;;;0.20;0.10;;;;;;;;;;5003171;28;20131;-84
2024/01/20 02:29:04;;;;;;;0.25;0.20;;;;;;;;;;4996570;28;20045;-86
2024/01/20 02:31:30;;;;;;;0.20;0.10;;;;;;;;;;4973695;28;20061;-84
2024/01/20 02:34:02;;;;;;;0.20;0.10;;;;;;;;;;4991191;28;20156;-86
2024/01/20 02:36:28;;;;;;;1.38;0.52;;;;;;;;;;4992456;28;20050;-85
2024/01/20 02:38:56;;;;;;;0.20;0.10;;;;;;;;;;4971449;28;20506;-86
2024/01/20 02:41:22;;;;;;;0.20;0.20;;;;;;;;;;4973367;28;20072;-85
2024/01/20 02:43:51;;;;;;;0.20;0.10;;;;;;;;;;4980539;28;20076;-86
2024/01/20 02:46:20;;;;;;;0.20;0.10;;;;;;;;;;4977385;28;20057;-86
2024/01/20 02:48:47;;;;;;;0.43;0.30;;;;;;;;;;4999425;28;20033;-84
2024/01/20 02:51:15;;;;;;;0.30;0.30;;;;;;;;;;4996215;28;20057;-88
2024/01/20 02:53:47;;;;;;;0.30;0.28;;;;;;;;;;4974924;28;20050;-86
2024/01/20 02:56:13;;;;;;;0.30;0.25;;;;;;;;;;4998966;28;20053;-86
2024/01/20 02:58:39;;;;;;;0.57;0.57;;;;;;;;;;4980744;28;20041;-86
2024/01/20 03:01:06;;;;;;;0.20;0.03;;;;;;;;;;4976908;28;20041;-84
2024/01/20 03:03:32;;;;;;;0.20;0.10;;;;;;;;;;4983279;28;20041;-85
2024/01/20 03:05:58;;;;;;;0.20;0.10;;;;;;;;;;4979251;28;20045;-83
2024/01/20 03:08:30;;;;;;;0.20;0.10;;;;;;;;;;4996247;28;20042;-86
2024/01/20 03:10:56;;;;;;;0.22;0.22;;;;;;;;;;4982865;28;20045;-85
2024/01/20 03:13:22;;;;;;;0.20;0.10;;;;;;;;;;4983277;28;20037;-86
2024/01/20 03:15:48;;;;;;;0.20;0.17;;;;;;;;;;4977316;28;21964;-84
2024/01/20 03:18:14;;;;;;;1.30;0.52;;;;;;;;;;4995316;28;20404;-84
2024/01/20 03:20:41;;;;;;;0.20;0.10;;;;;;;;;;4978868;28;20050;-85
2024/01/20 03:23:09;;;;;;;0.30;0.30;;;;;;;;;;4999444;28;20037;-88
2024/01/20 03:25:35;;;;;;;0.20;0.10;;;;;;;;;;4993318;28;20073;-87
2024/01/20 03:28:02;;;;;;;0.20;0.10;;;;;;;;;;4982054;28;20030;-86
2024/01/20 03:30:31;;;;;;;0.32;0.30;;;;;;;;;;4979031;28;20034;-86
2024/01/20 03:32:57;;;;;;;0.20;0.10;;;;;;;;;;4978123;28;20544;-84
2024/01/20 03:35:23;;;;;;;0.20;0.10;;;;;;;;;;4993772;28;20733;-84
2024/01/20 03:37:55;;;;;;;0.20;0.10;;;;;;;;;;4976859;28;20066;-85
2024/01/20 03:40:24;;;;;;;0.43;0.22;;;;;;;;;;4980365;28;20038;-85
2024/01/20 03:42:50;;;;;;;0.20;0.10;;;;;;;;;;4997305;28;20124;-88
2024/01/20 03:45:16;;;;;;;0.25;0.15;;;;;;;;;;4981649;28;20069;-85
2024/01/20 03:47:47;;;;;;;0.45;0.45;;;;;;;;;;4976236;28;20564;-87
2024/01/20 03:50:30;;;;;;;0.20;0.10;;;;;;;;;;5011438;28;20054;-85
2024/01/20 03:52:56;;;;;;;0.20;0.10;;;;;;;;;;4981242;28;20046;-86
2024/01/20 03:55:22;;;;;;;0.20;0.10;;;;;;;;;;4982710;28;20060;-83
2024/01/20 03:57:48;;;;;;;0.20;0.17;;;;;;;;;;4974533;28;20506;-88
2024/01/20 04:00:14;;;;;;;0.20;0.10;;;;;;;;;;4981797;28;20046;-84
2024/01/20 04:02:40;;;;;;;0.20;0.10;;;;;;;;;;4976556;28;20068;-84
2024/01/20 04:05:07;;;;;;;0.30;0.30;;;;;;;;;;4983501;28;20437;-85
2024/01/20 04:07:42;;;;;;;0.47;0.45;;;;;;;;;;4995949;28;20044;-84
2024/01/20 04:10:09;;;;;;;0.20;0.10;;;;;;;;;;4983301;28;20189;-83
2024/01/20 04:12:36;;;;;;;0.20;0.20;;;;;;;;;;4977566;28;20354;-88
2024/01/20 04:15:02;;;;;;;0.20;0.10;;;;;;;;;;4991419;28;20045;-88
2024/01/20 04:17:28;;;;;;;0.20;0.20;;;;;;;;;;4976644;28;20129;-88
2024/01/20 04:19:54;;;;;;;0.20;0.10;;;;;;;;;;4997294;28;20049;-89
2024/01/20 04:22:23;;;;;;;0.20;0.10;;;;;;;;;;4997827;28;20064;-88
2024/01/20 04:24:50;;;;;;;0.20;0.10;;;;;;;;;;4978543;28;20049;-86
2024/01/20 04:27:40;;;;;;;0.20;0.10;;;;;;;;;;4976546;28;20053;-88
2024/01/20 04:30:09;;;;;;;0.20;0.20;;;;;;;;;;4993864;28;20069;-86
2024/01/20 04:32:36;;;;;;;0.20;0.10;;;;;;;;;;4994326;28;20167;-87
2024/01/20 04:35:07;;;;;;;0.20;0.10;;;;;;;;;;4995542;28;20072;-85
2024/01/20 04:37:33;;;;;;;0.20;0.20;;;;;;;;;;4982189;28;20223;-86
2024/01/20 04:40:00;;;;;;;0.22;0.22;;;;;;;;;;4980490;28;20061;-82
2024/01/20 04:42:29;;;;;;;2.97;0.35;;;;;;;;;;5000893;28;20049;-86
2024/01/20 04:44:55;;;;;;;0.20;0.10;;;;;;;;;;4983764;28;20458;-84
2024/01/20 04:47:21;;;;;;;0.20;0.10;;;;;;;;;;4997590;28;20117;-84
2024/01/20 04:49:49;;;;;;;0.20;0.10;;;;;;;;;;4978802;28;20038;-84
2024/01/20 04:52:15;;;;;;;0.25;0.25;;;;;;;;;;5001165;28;20065;-87
2024/01/20 04:54:41;;;;;;;0.20;0.20;;;;;;;;;;4982320;28;20706;-84
2024/01/20 04:57:07;;;;;;;0.22;0.13;;;;;;;;;;4978051;28;20078;-85
2024/01/20 04:59:36;;;;;;;0.30;0.30;;;;;;;;;;4999512;28;20042;-83
2024/01/20 05:02:02;;;;;;;0.20;0.10;;;;;;;;;;4992763;28;20042;-83
2024/01/20 05:04:28;;;;;;;0.20;0.17;;;;;;;;;;4977772;28;20042;-83
2024/01/20 05:06:54;;;;;;;0.20;0.10;;;;;;;;;;4993827;28;20053;-84
2024/01/20 05:09:20;;;;;;;0.20;0.20;;;;;;;;;;4976368;28;20520;-87
2024/01/20 05:11:52;;;;;;;0.20;0.10;;;;;;;;;;4977499;28;20044;-84
2024/01/20 05:14:20;;;;;;;0.20;0.10;;;;;;;;;;4996134;28;20042;-85
2024/01/20 05:16:46;;;;;;;0.20;0.20;;;;;;;;;;4998213;28;20520;-88
2024/01/20 05:19:12;;;;;;;1.17;1.08;;;;;;;;;;4977129;28;20078;-85
2024/01/20 05:21:44;;;;;;;0.60;0.60;;;;;;;;;;4976183;28;20040;-87
2024/01/20 05:24:10;;;;;;;0.20;0.10;;;;;;;;;;5013153;28;20064;-85
2024/01/20 05:26:42;;;;;;;0.20;0.10;;;;;;;;;;4980806;28;20045;-87
2024/01/20 05:29:08;;;;;;;0.28;0.15;;;;;;;;;;4997333;28;20163;-84
2024/01/20 05:31:34;;;;;;;0.20;0.10;;;;;;;;;;4974925;28;20045;-85
2024/01/20 05:34:00;;;;;;;0.20;0.10;;;;;;;;;;4982752;23;20058;-85
2024/01/20 05:36:27;;;;;;;0.20;0.10;;;;;;;;;;4970927;28;20074;-83
2024/01/20 05:38:53;;;;;;;0.20;0.20;;;;;;;;;;4954216;28;20038;-84
2024/01/20 05:41:19;;;;;;;0.28;0.20;;;;;;;;;;4961403;28;20471;-86
2024/01/20 05:43:45;;;;;;;0.30;0.20;;;;;;;;;;4951885;28;20039;-84
2024/01/20 05:46:11;;;;;;;0.20;0.17;;;;;;;;;;4943731;28;20692;-84
2024/01/20 05:48:37;;;;;;;1.13;1.02;;;;;;;;;;4943475;28;20062;-86
2024/01/20 05:51:05;;;;;;;0.20;0.10;;;;;;;;;;4938300;28;20081;-86
2024/01/20 05:53:31;;;;;;;0.20;0.20;;;;;;;;;;4942699;28;20534;-83
2024/01/20 05:55:57;;;;;;;0.20;0.10;;;;;;;;;;4942655;28;20038;-83
2024/01/20 05:58:23;;;;;;;0.20;0.10;;;;;;;;;;4974627;28;20652;-86
2024/01/20 06:00:55;;;;;;;4.78;0.45;;;;;;;;;;4952708;28;20074;-86
2024/01/20 06:03:30;;;;;;;0.30;0.13;;;;;;;;;;4948664;28;20117;-85
2024/01/20 06:06:08;;;;;;;0.20;0.10;;;;;;;;;;4936927;28;20047;-85
2024/01/20 06:08:43;;;;;;;0.20;0.20;;;;;;;;;;4939225;28;20066;-85
2024/01/20 06:11:09;;;;;;;0.20;0.17;;;;;;;;;;4968346;28;20046;-82
2024/01/20 06:13:37;;;;;;;0.47;0.47;;;;;;;;;;4937937;28;20538;-84
2024/01/20 06:16:03;;;;;;;0.20;0.10;;;;;;;;;;4945805;28;20039;-85
2024/01/20 06:18:30;;;;;;;0.20;0.00;;;;;;;;;;4936459;28;20684;-89
2024/01/20 06:20:57;;;;;;;0.20;0.20;;;;;;;;;;4941540;28;20154;-83
2024/01/20 06:23:23;;;;;;;0.20;0.10;;;;;;;;;;4957555;28;21085;-85
2024/01/20 06:25:49;;;;;;;0.20;0.10;;;;;;;;;;4953037;28;20051;-89
2024/01/20 06:28:17;;;;;;;0.20;0.20;;;;;;;;;;4949934;28;20038;-84
2024/01/20 06:30:46;;;;;;;2.33;1.10;;;;;;;;;;4937691;28;20070;-88
2024/01/20 06:33:12;;;;;;;0.95;0.50;;;;;;;;;;4931116;28;20484;-84
2024/01/20 06:35:38;;;;;;;1.63;1.52;;;;;;;;;;4931721;28;20039;-84
2024/01/20 06:38:04;;;;;;;0.20;0.10;;;;;;;;;;4942077;28;20035;-83
2024/01/20 06:40:30;;;;;;;0.20;0.10;;;;;;;;;;4946988;28;20077;-85
2024/01/20 06:42:56;;;;;;;0.20;0.17;;;;;;;;;;4930351;28;20042;-83
2024/01/20 06:45:33;;;;;;;1.35;1.25;;;;;;;;;;4930658;28;20097;-86
2024/01/20 06:48:00;;;;;;;3.03;0.85;;;;;;;;;;4933085;28;20104;-84
2024/01/20 06:50:28;;;;;;;0.20;0.10;;;;;;;;;;4928278;28;20079;-83
2024/01/20 06:52:54;;;;;;;0.20;0.17;;;;;;;;;;4930515;28;20066;-80
2024/01/20 06:55:20;;;;;;;0.20;0.10;;;;;;;;;;4930987;28;20071;-83
2024/01/20 06:57:46;;;;;;;0.20;0.10;;;;;;;;;;4932531;28;20165;-84
2024/01/20 07:00:13;;;;;;;0.20;0.10;;;;;;;;;;4931247;28;20578;-84
2024/01/20 07:02:39;;;;;;;0.20;0.10;;;;;;;;;;4950350;28;20054;-83
2024/01/20 07:05:05;;;;;;;0.20;0.10;;;;;;;;;;4932074;28;20046;-83
2024/01/20 07:07:32;;;;;;;0.20;0.10;;;;;;;;;;4943094;28;20093;-81
2024/01/20 07:09:58;;;;;;;1.05;0.38;;;;;;;;;;4932506;28;20770;-86
2024/01/20 07:12:24;;;;;;;0.20;0.10;;;;;;;;;;4935735;28;20066;-82
2024/01/20 07:14:50;;;;;;;3.63;1.00;;;;;;;;;;4935095;28;20042;-83
2024/01/20 07:17:16;;;;;;;0.20;0.10;;;;;;;;;;4950913;28;20035;-83
2024/01/20 07:19:42;;;;;;;6.57;0.55;;;;;;;;;;4954016;28;20039;-83
2024/01/20 07:22:08;;;;;;;0.20;0.10;;;;;;;;;;4952233;28;20057;-84
2024/01/20 07:24:35;;;;;;;0.20;0.03;;;;;;;;;;4938263;28;20042;-83
2024/01/20 07:27:01;;;;;;;0.90;0.57;;;;;;;;;;4933359;28;20050;-84
2024/01/20 07:29:27;;;;;;;0.20;0.10;;;;;;;;;;4940577;28;20031;-83
2024/01/20 07:31:53;;;;;;;0.20;0.10;;;;;;;;;;4940646;28;20051;-83
2024/01/20 07:34:20;;;;;;;0.90;0.90;;;;;;;;;;4953664;28;20611;-84
2024/01/20 07:36:46;;;;;;;0.30;0.20;;;;;;;;;;4937222;28;20055;-82
2024/01/20 07:39:12;;;;;;;0.20;0.10;;;;;;;;;;4936286;28;20051;-82
2024/01/20 07:41:38;;;;;;;0.20;0.17;;;;;;;;;;4947968;28;20089;-81
2024/01/20 07:44:04;;;;;;;0.20;0.20;;;;;;;;;;4938752;28;20049;-84
2024/01/20 07:46:30;;;;;;;0.20;0.10;;;;;;;;;;4957158;28;20042;-81
2024/01/20 07:48:56;;;;;;;0.28;0.28;;;;;;;;;;4932770;28;20049;-83
2024/01/20 07:51:22;;;;;;;0.20;0.10;;;;;;;;;;4933725;28;20043;-82
2024/01/20 07:53:48;;;;;;;0.20;0.10;;;;;;;;;;4935840;28;20096;-81
2024/01/20 07:56:16;;;;;;;0.20;0.10;;;;;;;;;;4944781;28;20049;-82
2024/01/20 07:58:42;;;;;;;0.20;0.20;;;;;;;;;;4933326;28;20090;-84
2024/01/20 08:01:09;;;;;;;0.20;0.10;;;;;;;;;;4936154;28;20041;-83
2024/01/20 08:03:35;;;;;;;0.20;0.10;;;;;;;;;;4934829;28;21447;-83
2024/01/20 08:06:01;;;;;;;0.20;0.10;;;;;;;;;;4934126;28;20083;-83
2024/01/20 08:08:27;;;;;;;0.25;0.25;;;;;;;;;;4936669;28;20042;-88
2024/01/20 08:10:56;;;;;;;0.22;0.22;;;;;;;;;;4932125;28;20046;-84
2024/01/20 08:13:22;;;;;;;0.20;0.10;;;;;;;;;;4934721;28;20078;-85
2024/01/20 08:15:51;;;;;;;0.20;0.10;;;;;;;;;;4932244;28;20039;-84
2024/01/20 08:18:19;;;;;;;0.20;0.10;;;;;;;;;;4937484;28;20057;-84
2024/01/20 08:20:45;;;;;;;0.28;0.25;;;;;;;;;;4940136;28;20070;-84
2024/01/20 08:23:17;;;;;;;0.50;0.47;;;;;;;;;;4948403;28;20054;-87
2024/01/20 08:25:51;;;;;;;0.20;0.10;;;;;;;;;;4956323;28;20137;-84
2024/01/20 08:28:20;;;;;;;0.52;0.52;;;;;;;;;;4960016;28;20035;-88
2024/01/20 08:30:57;;;;;;;0.20;0.10;;;;;;;;;;4936101;28;20554;-85
2024/01/20 08:33:26;;;;;;;0.20;0.10;;;;;;;;;;4942526;28;20034;-85
2024/01/20 08:35:52;;;;;;;0.20;0.10;;;;;;;;;;4942466;28;20045;-84
2024/01/20 08:38:19;;;;;;;0.20;0.10;;;;;;;;;;4937523;28;20047;-84
2024/01/20 08:40:45;;;;;;;0.20;0.10;;;;;;;;;;4954859;28;20066;-83
2024/01/20 08:43:11;;;;;;;0.20;0.10;;;;;;;;;;4937267;28;20038;-83
2024/01/20 08:45:40;;;;;;;0.20;0.10;;;;;;;;;;4937518;28;20055;-83
2024/01/20 08:48:06;;;;;;;0.20;0.10;;;;;;;;;;4957234;28;20283;-82
2024/01/20 08:50:35;;;;;;;0.20;0.15;;;;;;;;;;4959490;28;20071;-83
2024/01/20 08:53:04;;;;;;;0.20;0.10;;;;;;;;;;4959083;28;20039;-85
2024/01/20 08:55:30;;;;;;;1.27;0.43;;;;;;;;;;4953796;28;20039;-85
2024/01/20 08:57:56;;;;;;;0.20;0.10;;;;;;;;;;4949210;28;20042;-83
2024/01/20 09:00:23;;;;;;;0.20;0.20;;;;;;;;;;4945501;28;20354;-82
2024/01/20 09:02:52;;;;;;;0.20;0.10;;;;;;;;;;4937012;28;20047;-82
2024/01/20 09:05:19;;;;;;;0.20;0.10;;;;;;;;;;4941396;28;20174;-83
2024/01/20 09:07:48;;;;;;;0.20;0.10;;;;;;;;;;4956381;28;20039;-84
2024/01/20 09:10:14;;;;;;;0.65;0.63;;;;;;;;;;4953974;28;20194;-82
2024/01/20 09:12:40;;;;;;;0.30;0.30;;;;;;;;;;4943287;28;20065;-82
2024/01/20 09:15:06;;;;;;;1.50;1.40;;;;;;;;;;4942486;28;20046;-84
2024/01/20 09:17:32;;;;;;;0.20;0.10;;;;;;;;;;4943035;28;20399;-82
2024/01/20 09:19:59;;;;;;;0.20;0.10;;;;;;;;;;4942880;28;20042;-83
2024/01/20 09:22:25;;;;;;;0.20;0.10;;;;;;;;;;4947342;28;20042;-85
2024/01/20 09:24:54;;;;;;;1.75;1.05;;;;;;;;;;4944140;28;20039;-85
2024/01/20 09:27:23;;;;;;;0.20;0.10;;;;;;;;;;4943490;28;20047;-84
2024/01/20 09:29:52;;;;;;;0.20;0.10;;;;;;;;;;4940777;28;20083;-83
2024/01/20 09:32:18;;;;;;;0.20;0.10;;;;;;;;;;4955787;28;20058;-84
2024/01/20 09:34:44;;;;;;;0.20;0.10;;;;;;;;;;4939306;28;20042;-83
2024/01/20 09:37:10;;;;;;;0.20;0.10;;;;;;;;;;4938689;28;20407;-85
2024/01/20 09:39:36;;;;;;;0.20;0.10;;;;;;;;;;4940663;28;20047;-82
2024/01/20 09:42:02;;;;;;;0.20;0.10;;;;;;;;;;4933973;28;20424;-86
2024/01/20 09:44:31;;;;;;;0.20;0.10;;;;;;;;;;4940718;28;20043;-82
2024/01/20 09:46:57;;;;;;;0.20;0.10;;;;;;;;;;4941021;28;20099;-85
2024/01/20 09:49:33;;;;;;;0.20;0.10;;;;;;;;;;4931107;28;20101;-85
2024/01/20 09:52:12;;;;;;;1.40;0.88;;;;;;;;;;4953067;28;20039;-83
2024/01/20 09:54:57;;;;;;;0.20;0.10;;;;;;;;;;4939805;28;20041;-83
2024/01/20 09:57:29;;;;;;;0.20;0.10;;;;;;;;;;4955588;28;20419;-86
2024/01/20 09:59:55;;;;;;;0.28;0.28;;;;;;;;;;4951160;28;20077;-83
2024/01/20 10:02:21;;;;;;;0.20;0.10;;;;;;;;;;4943303;28;20046;-85
2024/01/20 10:04:52;;;;;;;0.20;0.20;;;;;;;;;;4928087;29;20031;-84
2024/01/20 10:07:31;;;;;;;2.03;0.50;;;;;;;;;;4949459;28;20039;-83
2024/01/20 10:09:57;;;;;;;0.20;0.10;;;;;;;;;;4952701;28;20038;-83
2024/01/20 10:12:23;;;;;;;0.20;0.10;;;;;;;;;;4951533;28;20135;-84
2024/01/20 10:14:50;;;;;;;0.20;0.10;;;;;;;;;;4955278;28;20042;-82
2024/01/20 10:17:16;;;;;;;0.20;0.10;;;;;;;;;;4941131;28;20118;-85
2024/01/20 10:19:56;;;;;;;0.30;0.30;;;;;;;;;;4954227;28;20042;-87
2024/01/20 10:22:22;;;;;;;0.20;0.10;;;;;;;;;;4956301;28;20099;-84
2024/01/20 10:24:55;;;;;;;0.20;0.10;;;;;;;;;;4950850;29;20049;-85
2024/01/20 10:27:25;;;;;;;0.20;0.10;;;;;;;;;;4945733;28;20046;-86
2024/01/20 10:29:56;;;;;;;0.20;0.20;;;;;;;;;;4975544;28;20059;-86
2024/01/20 10:32:22;;;;;;;0.20;0.10;;;;;;;;;;4955786;28;20054;-84
2024/01/20 10:34:48;;;;;;;0.20;0.10;;;;;;;;;;4969792;28;20144;-85
2024/01/20 10:37:14;;;;;;;0.22;0.22;;;;;;;;;;4939355;28;20129;-85
2024/01/20 10:39:42;;;;;;;0.35;0.35;;;;;;;;;;4941137;28;20066;-87
2024/01/20 10:42:18;;;;;;;0.20;0.00;;;;;;;;;;4958505;28;20050;-86
2024/01/20 10:45:04;;;;;;;0.20;0.10;;;;;;;;;;4932204;28;20045;-83
2024/01/20 10:47:36;;;;;;;0.20;0.10;;;;;;;;;;4942569;28;20051;-84
2024/01/20 10:50:05;;;;;;;0.40;0.40;;;;;;;;;;4944816;28;20042;-84
2024/01/20 10:52:35;;;;;;;0.20;0.10;;;;;;;;;;4954850;28;20042;-85
2024/01/20 10:55:02;;;;;;;0.20;0.10;;;;;;;;;;4931982;28;20085;-86
2024/01/20 10:57:28;;;;;;;0.20;0.10;;;;;;;;;;4953976;28;20039;-85
2024/01/20 10:59:58;;;;;;;0.20;0.10;;;;;;;;;;4959063;28;20042;-83
2024/01/20 11:02:25;;;;;;;0.20;0.10;;;;;;;;;;4954710;28;20619;-85
2024/01/20 11:04:54;;;;;;;0.20;0.10;;;;;;;;;;4956326;28;20108;-83
2024/01/20 11:07:26;;;;;;;0.20;0.10;;;;;;;;;;4975315;28;20065;-83
2024/01/20 11:09:56;;;;;;;0.20;0.10;;;;;;;;;;4948298;28;20074;-87
2024/01/20 11:12:23;;;;;;;0.20;0.10;;;;;;;;;;4943147;28;20522;-85
2024/01/20 11:14:56;;;;;;;0.20;0.10;;;;;;;;;;4960717;28;20123;-88
2024/01/20 11:17:29;;;;;;;0.20;0.20;;;;;;;;;;4938889;28;20051;-86
2024/01/20 11:19:55;;;;;;;0.20;0.15;;;;;;;;;;4939562;28;20058;-83
2024/01/20 11:22:34;;;;;;;0.20;0.10;;;;;;;;;;4944883;28;20454;-83
2024/01/20 11:25:04;;;;;;;0.20;0.20;;;;;;;;;;4956241;28;20134;-84
2024/01/20 11:27:33;;;;;;;0.20;0.10;;;;;;;;;;4953839;28;20043;-85
2024/01/20 11:30:04;;;;;;;0.20;0.10;;;;;;;;;;4965649;28;20050;-83
2024/01/20 11:32:30;;;;;;;0.20;0.10;;;;;;;;;;4956016;28;20147;-86
2024/01/20 11:34:56;;;;;;;0.30;0.30;;;;;;;;;;4990894;23;20035;-84
2024/01/20 11:37:23;;;;;;;0.20;0.10;;;;;;;;;;4973269;28;20066;-86
2024/01/20 11:39:51;;;;;;;0.20;0.10;;;;;;;;;;4964016;28;20092;-85
2024/01/20 11:42:20;;;;;;;0.20;0.10;;;;;;;;;;4977254;28;20049;-85
2024/01/20 11:44:46;;;;;;;0.20;0.10;;;;;;;;;;4956662;28;20046;-84
2024/01/20 11:47:12;;;;;;;0.20;0.10;;;;;;;;;;4977112;28;20057;-84
2024/01/20 11:49:38;;;;;;;0.20;0.10;;;;;;;;;;4981157;28;20294;-87
2024/01/20 11:52:12;;;;;;;0.20;0.10;;;;;;;;;;4962831;28;20546;-83
2024/01/20 11:54:38;;;;;;;0.20;0.10;;;;;;;;;;4958454;28;20039;-83
2024/01/20 11:57:04;;;;;;;0.20;0.10;;;;;;;;;;4977437;28;20044;-85
2024/01/20 11:59:33;;;;;;;0.20;0.10;;;;;;;;;;4960948;28;20101;-83
2024/01/20 12:01:59;;;;;;;0.20;0.10;;;;;;;;;;4970484;28;20043;-82
2024/01/20 12:04:31;;;;;;;0.20;0.00;;;;;;;;;;4990788;28;20686;-84
2024/01/20 12:07:02;;;;;;;0.20;0.10;;;;;;;;;;4963536;28;20383;-88
2024/01/20 12:09:31;;;;;;;0.20;0.10;;;;;;;;;;4961440;28;20066;-82
2024/01/20 12:11:57;;;;;;;0.20;0.10;;;;;;;;;;4960844;28;20038;-85
2024/01/20 12:14:29;;;;;;;0.43;0.43;;;;;;;;;;4963543;28;20038;-83
2024/01/20 12:17:04;;;;;;;0.20;0.10;;;;;;;;;;4976795;28;20050;-83
2024/01/20 12:19:32;;;;;;;0.40;0.30;;;;;;;;;;4992630;28;20057;-84
2024/01/20 12:22:10;;;;;;;;;;;;;;;;;;;;;
2024/01/20 12:24:37;;;;;;;0.20;0.10;;;;;;;;;;4989904;28;20042;-83
2024/01/20 12:27:04;;;;;;;0.20;0.10;;;;;;;;;;4951088;28;20061;-87
2024/01/20 12:29:30;;;;;;;0.20;0.20;;;;;;;;;;4977086;28;20057;-86
2024/01/20 12:32:00;;;;;;;0.20;0.10;;;;;;;;;;4994504;28;20034;-86
2024/01/20 12:34:26;;;;;;;0.20;0.10;;;;;;;;;;4972791;28;20121;-87
2024/01/20 12:36:56;;;;;;;0.20;0.10;;;;;;;;;;4977107;28;20046;-85
2024/01/20 12:39:23;;;;;;;0.20;0.10;;;;;;;;;;4978186;28;20035;-85
2024/01/20 12:41:49;;;;;;;1.77;0.43;;;;;;;;;;4957614;28;20042;-85
2024/01/20 12:44:16;;;;;;;0.20;0.10;;;;;;;;;;4967238;28;20042;-84
2024/01/20 12:46:42;;;;;;;0.20;0.20;;;;;;;;;;4965337;28;20193;-85
2024/01/20 12:49:14;;;;;;;0.20;0.00;;;;;;;;;;4977026;28;20081;-85
2024/01/20 12:51:43;;;;;;;0.20;0.00;;;;;;;;;;4958518;28;20050;-84
2024/01/20 12:54:09;;;;;;;0.20;0.10;;;;;;;;;;4964495;28;20099;-85
2024/01/20 12:56:39;;;;;;;0.20;0.08;;;;;;;;;;4981808;28;20034;-84
2024/01/20 12:59:05;;;;;;;0.20;0.10;;;;;;;;;;4965243;28;20299;-84
2024/01/20 13:01:34;;;;;;;0.20;0.20;;;;;;;;;;4982114;28;20039;-82
2024/01/20 13:04:00;;;;;;;0.20;0.10;;;;;;;;;;4981634;28;20051;-85
2024/01/20 13:06:29;;;;;;;0.20;0.10;;;;;;;;;;4981995;28;20030;-83
2024/01/20 13:08:55;;;;;;;0.20;0.10;;;;;;;;;;4969102;28;20018;-85
2024/01/20 13:11:23;;;;;;;0.20;0.10;;;;;;;;;;4964436;28;20581;-82
2024/01/20 13:13:49;;;;;;;0.20;0.10;;;;;;;;;;4966197;28;20313;-83
2024/01/20 13:16:19;;;;;;;0.20;0.10;;;;;;;;;;4999590;28;20034;-85
2024/01/20 13:18:48;;;;;;;0.20;0.10;;;;;;;;;;4976982;28;20041;-84
2024/01/20 13:21:14;;;;;;;0.20;0.10;;;;;;;;;;4962531;28;20061;-86
2024/01/20 13:23:42;;;;;;;0.63;0.50;;;;;;;;;;4975271;28;20458;-83
2024/01/20 13:26:08;;;;;;;0.20;0.10;;;;;;;;;;4977938;28;20056;-83
2024/01/20 13:28:34;;;;;;;0.20;0.10;;;;;;;;;;4984401;28;20038;-84
2024/01/20 13:31:00;;;;;;;0.52;0.52;;;;;;;;;;4978227;28;20050;-83
2024/01/20 13:33:26;;;;;;;0.22;0.22;;;;;;;;;;4957681;28;20125;-86
2024/01/20 13:35:52;;;;;;;0.30;0.30;;;;;;;;;;4978022;28;20042;-86
2024/01/20 13:38:28;;;;;;;0.20;0.10;;;;;;;;;;4962719;28;20065;-85
2024/01/20 13:40:55;;;;;;;0.20;0.10;;;;;;;;;;4966847;28;20121;-84
2024/01/20 13:43:21;;;;;;;0.20;0.10;;;;;;;;;;4964663;28;20042;-85
2024/01/20 13:45:50;;;;;;;0.20;0.10;;;;;;;;;;4981227;28;20035;-85
2024/01/20 13:48:16;;;;;;;0.47;0.17;;;;;;;;;;4977599;28;20244;-83
2024/01/20 13:50:42;;;;;;;0.63;0.43;;;;;;;;;;4964804;28;20041;-85
2024/01/20 13:53:08;;;;;;;0.20;0.10;;;;;;;;;;4976947;28;20046;-86
2024/01/20 13:55:36;;;;;;;0.20;0.10;;;;;;;;;;4966839;28;20038;-85
2024/01/20 13:58:03;;;;;;;0.20;0.15;;;;;;;;;;4964550;28;20042;-85
2024/01/20 14:00:29;;;;;;;0.20;0.10;;;;;;;;;;4966757;28;20148;-85
2024/01/20 14:02:55;;;;;;;0.20;0.10;;;;;;;;;;4957917;28;20042;-85
2024/01/20 14:05:21;;;;;;;0.20;0.03;;;;;;;;;;4977080;28;20175;-84
2024/01/20 14:07:49;;;;;;;0.30;0.30;;;;;;;;;;4980466;28;20042;-83
2024/01/20 14:10:18;;;;;;;0.20;0.10;;;;;;;;;;4991443;28;20043;-85
2024/01/20 14:12:46;;;;;;;0.35;0.35;;;;;;;;;;4974689;28;20043;-83
2024/01/20 14:15:12;;;;;;;0.20;0.10;;;;;;;;;;4961966;28;20088;-85
2024/01/20 14:17:38;;;;;;;0.28;0.13;;;;;;;;;;4975052;28;20073;-83
2024/01/20 14:20:05;;;;;;;0.20;0.10;;;;;;;;;;4965490;28;20034;-83
2024/01/20 14:22:32;;;;;;;0.20;0.10;;;;;;;;;;4964198;28;20066;-83
2024/01/20 14:24:59;;;;;;;0.20;0.10;;;;;;;;;;4964891;28;20118;-82
2024/01/20 14:27:25;;;;;;;1.65;1.23;;;;;;;;;;4963584;28;20038;-82
2024/01/20 14:29:52;;;;;;;0.20;0.10;;;;;;;;;;4959584;28;20042;-83
2024/01/20 14:32:18;;;;;;;0.20;0.10;;;;;;;;;;4975465;28;20484;-84
2024/01/20 14:34:48;;;;;;;0.20;0.10;;;;;;;;;;4960576;28;20038;-84
2024/01/20 14:37:14;;;;;;;0.20;0.10;;;;;;;;;;4958282;28;20112;-83
2024/01/20 14:39:46;;;;;;;0.20;0.10;;;;;;;;;;4979432;28;20067;-86
2024/01/20 14:42:12;;;;;;;0.20;0.10;;;;;;;;;;4982745;28;20034;-85
2024/01/20 14:44:38;;;;;;;0.28;0.28;;;;;;;;;;4969194;28;20064;-82
2024/01/20 14:47:04;;;;;;;0.20;0.10;;;;;;;;;;4999096;28;20126;-86